WETTERDATEN

GESTERN
Time Temp. Taup. r.Fe. Windrich Windstärke Windböe Druck 1h Prec. 24h Prec.
00:04 12 10.4 90 225 0.3 0.8 1005.4 0.0000 0.0000
00:13 12 10.4 90 165 0.3 1.4 1005.2 0.0000 0.0000
00:23 12 10.4 90 303 0.3 1.4 1005.4 0.0000 0.0000
00:34 12 10.4 90 135 0.3 1.1 1005.4 0.0000 0.0000
00:44 12 10.4 90 319 0.8 1.4 1005.3 0.0000 0.0000
00:54 12 10.4 90 351 0.3 1.1 1005.3 0.0000 0.0000
01:04 12 10.4 90 270 0.3 1.7 1005.2 0.0000 0.0000
01:14 12 10.4 90 59 0.3 0.8 1005.2 0.0000 0.0000
01:24 12 10.4 90 14 0.3 1.7 1005.3 0.0000 0.0000
01:34 12 10.4 90 302 1.1 3.6 1005.3 0.0000 0.0000
01:45 11.9 10.3 90 310 1.1 5.3 1005.2 0.0000 0.0000
01:54 11.8 10.2 90 315 0.8 2.2 1005.2 0.0000 0.0000
02:04 11.7 10.1 90 312 1.1 3.6 1005.1 0.0000 0.0000
02:15 11.6 9.9 89 312 1.1 2.8 1005.1 0.0000 0.0000
02:25 11.3 9.4 88 326 1.1 2.8 1005.2 0.0000 0.0000
02:35 11.1 9 87 315 0.8 2.2 1005.2 0.0000 0.0000
02:45 10.9 8.8 87 0 0.3 1.7 1005.3 0.0000 0.0000
02:55 10.7 8.6 87 325 0.8 2.8 1005.3 0.0000 0.0000
03:05 10.6 8.5 87 320 1.1 3.6 1005.3 0.0000 0.0000
03:15 10.5 8.4 87 304 0.8 3.9 1005.2 0.0000 0.0000
03:25 10.4 8.3 87 322 0.8 2.2 1005.2 0.0000 0.0000
03:36 10.3 8.1 86 315 0.8 2.2 1005.2 0.0000 0.0000
03:45 10.2 8 86 309 0.8 2.2 1005.3 0.0000 0.0000
03:55 10.1 7.7 85 310 0.8 2.2 1005.4 0.0000 0.0000
04:06 10.1 7.7 85 322 1.1 3.9 1005.3 0.0000 0.0000
04:16 10.1 7.5 84 318 1.4 4.7 1005.2 0.0000 0.0000
04:26 10 7.2 83 330 0.8 3.3 1005.3 0.0000 0.0000
04:36 10 7.2 83 337 1.1 3.6 1005.3 0.0000 0.0000
04:42 10 7.2 83 0 1.1 4.7 1005.4 0.0000 0.0000
04:52 10 7.1 82 335 1.1 3.6 1005.5 0.0000 0.0000
05:02 10 6.9 81 316 1.4 3.3 1005.6 0.0000 0.0000
05:12 10 6.9 81 316 1.7 7.2 1005.7 0.0000 0.0000
05:23 10 6.9 81 307 2.2 5 1005.7 0.0000 0.0000
05:32 9.9 6.6 80 304 1.4 4.7 1005.8 0.0000 0.0000
05:42 9.9 6.8 81 324 1.4 5 1005.9 0.1600 0.2000
05:52 9.8 6.7 81 320 2.2 4.7 1006 0.1600 0.2000
06:03 9.8 6.7 81 327 1.7 5 1006.1 0.1600 0.2000
06:12 9.8 6.9 82 320 1.4 3.9 1006.2 0.1600 0.2000
06:22 9.8 6.9 82 310 1.7 3.9 1006.3 0.1600 0.2000
06:33 9.8 7.1 83 316 1.1 3.3 1006.5 0.0000 0.2000
06:43 9.8 7.1 83 326 1.4 4.7 1006.7 0.0000 0.2000
06:53 9.8 7.2 84 327 2.2 5 1006.9 0.0000 0.2000
07:03 9.7 7.1 84 326 2.5 7.5 1007.1 0.0000 0.2000
07:13 9.7 7.3 85 333 2.2 5 1007.3 0.0000 0.2000
07:14 9.7 7.3 85 333 2.5 8.3 1007.2 0.0000 0.2000
07:29 9.7 7.3 85 330 2.8 8.3 1007.6 0.0000 0.2000
07:39 9.8 7.4 85 329 2.2 9.2 1007.9 0.0000 0.2000
07:50 9.9 7.3 84 321 2.5 6.4 1008.1 0.0000 0.2000
08:00 10.1 7.5 84 333 2.5 7.2 1008.3 0.0000 0.2000
08:10 10.2 7.6 84 323 2.5 6.4 1008.6 0.0000 0.2000
08:19 10.3 7.7 84 322 2.2 6.7 1008.8 0.0000 0.2000
08:30 10.5 7.7 83 324 2.5 6.4 1009 0.0000 0.2000
08:42 10.8 7.9 82 327 2.5 7.8 1009.3 0.0000 0.2000
08:53 10.9 8 82 319 2.2 5 1009.5 0.0000 0.2000
09:03 11.2 8.1 81 325 2.5 7.8 1009.7 0.0000 0.2000
09:12 11.5 8.2 80 316 2.5 7.8 1009.9 0.0000 0.2000
09:23 11.7 8.4 80 318 2.2 6.4 1010.1 0.0000 0.2000
09:33 11.7 8 78 315 2.5 6.4 1010.4 0.0000 0.2000
09:43 11.6 7.9 78 316 1.7 3.9 1010.5 0.0000 0.2000
09:53 11.8 8.1 78 321 2.5 6.4 1010.6 0.0000 0.2000
10:03 12 8.1 77 327 1.1 3.6 1010.8 0.0000 0.2000
10:13 12.1 8.2 77 322 2.2 6.7 1011 0.0000 0.2000
10:23 12.1 8 76 314 2.2 5 1011.1 0.0000 0.2000
10:34 12.3 8.2 76 324 1.7 5 1011.1 0.0000 0.2000
10:44 12.6 8.3 75 335 2.2 5.3 1011.3 0.0000 0.2000
10:53 12.5 7.8 73 315 2.8 5.8 1011.4 0.0000 0.2000
11:03 12.7 8.2 74 321 1.7 6.4 1011.5 0.0000 0.2000
11:14 12.9 8 72 325 1.4 3.9 1011.5 0.0000 0.2000
11:24 12.9 8 72 323 2.2 6.1 1011.7 0.0000 0.2000
11:34 13.1 8.2 72 312 2.2 6.7 1011.7 0.0000 0.2000
11:44 13.5 8.1 70 326 2.2 6.4 1011.8 0.0000 0.2000
11:54 13.7 8.1 69 329 1.7 6.4 1011.9 0.0000 0.2000
12:04 14.2 8.6 69 323 1.7 5.3 1011.9 0.0000 0.2000
12:15 14.6 8.3 66 324 2.8 10 1012.1 0.0000 0.2000
12:25 14.2 7.7 65 329 1.7 6.1 1012.3 0.0000 0.2000
12:36 13.8 7.3 65 321 1.4 3.6 1012.4 0.0000 0.2000
12:48 13.9 7.4 65 319 1.7 6.1 1012.5 0.0000 0.2000
12:58 14.3 7.8 65 327 1.7 5 1012.5 0.0000 0.2000
13:08 14.6 7.9 64 322 2.2 5.8 1012.5 0.0000 0.2000
13:18 14.5 7.8 64 345 1.7 5.3 1012.7 0.0000 0.2000
13:20 14.5 7.5 63 334 2.2 8.6 1012.7 0.0000 0.2000
13:30 14.6 7.9 64 328 1.7 5.8 1012.7 0.0000 0.2000
13:40 15 8 63 323 3.3 8.3 1012.8 0.0000 0.2000
13:50 15.4 8.2 62 326 1.7 5.8 1012.9 0.0000 0.2000
14:00 15.5 8 61 325 2.5 5 1012.9 0.0000 0.2000
14:11 15.4 7.4 59 326 2.2 6.1 1013.1 0.0000 0.2000
14:21 15.2 7.3 59 318 2.2 5.8 1013.2 0.0000 0.2000
14:30 15.5 7.8 60 332 1.4 4.2 1013.2 0.0000 0.2000
14:40 15.9 8.2 60 322 1.4 5.3 1013.1 0.0000 0.2000
14:51 16.3 8 58 331 2.2 4.7 1013.1 0.0000 0.2000
15:01 16.7 8.1 57 326 1.4 4.7 1013.1 0.0000 0.2000
15:09 16.8 8 56 312 1.7 7.5 1013.1 0.0000 0.2000
15:20 17.2 7.8 54 311 1.7 4.2 1013 0.0000 0.2000
15:30 17.8 8.1 53 315 1.7 3.9 1012.9 0.0000 0.2000
15:40 17.8 7 49 329 2.2 4.7 1013 0.0000 0.2000
15:50 17.7 6.3 47 320 2.5 6.1 1013 0.0000 0.2000
16:00 17.7 6.6 48 333 2.2 4.7 1013 0.0000 0.2000
16:10 17.7 6.3 47 318 2.2 6.1 1013 0.0000 0.2000
16:20 17.9 6.1 46 315 2.8 7.5 1013 0.0000 0.2000
16:31 18.4 6.6 46 328 1.4 5.3 1012.9 0.0000 0.2000
16:40 19 6.5 44 325 2.2 6.4 1013 0.0000 0.2000
16:50 19.3 6.1 42 329 1.7 5.3 1013 0.0000 0.2000
17:00 19.5 6.3 42 326 2.2 8.9 1013 0.0000 0.2000
17:10 19.4 5.5 40 324 2.5 7.2 1013 0.0000 0.2000
17:20 18.7 4.8 40 322 2.5 6.7 1013 0.0000 0.2000
17:30 18.7 5.2 41 326 2.2 5.3 1013.2 0.0000 0.2000
17:40 18.5 5 41 326 2.2 5.3 1013.2 0.0000 0.2000
17:50 18.7 4.8 40 337 1.7 5.3 1013.3 0.0000 0.2000
18:00 18.7 4.8 40 332 1.7 5 1013.3 0.0000 0.2000
18:12 18.6 5.1 41 321 2.2 7.2 1013.3 0.0000 0.2000
18:23 18.6 5.1 41 327 2.2 5.8 1013.2 0.0000 0.2000
18:33 18.6 4.8 40 328 2.5 5.8 1013.1 0.0000 0.2000
18:43 18.5 4.3 39 325 2.5 5 1013.2 0.0000 0.2000
18:53 18.4 4.2 39 322 1.7 5.3 1013.2 0.0000 0.2000
19:03 18.3 4.1 39 335 1.7 5 1013.3 0.0000 0.2000
19:13 18.1 4.3 40 322 1.7 3.9 1013.3 0.0000 0.2000
19:23 17.8 4.4 41 330 2.2 5.3 1013.4 0.0000 0.2000
19:34 17.5 4.1 41 344 1.4 4.7 1013.4 0.0000 0.2000
19:44 17.2 4.2 42 329 1.4 3.3 1013.7 0.0000 0.2000
19:53 16.8 4.5 44 328 2.5 6.7 1013.9 0.0000 0.2000
20:03 16.5 4.5 45 329 1.4 3.6 1013.9 0.0000 0.2000
20:14 16.3 4.7 46 338 1.4 5.8 1014 0.0000 0.2000
20:24 16.1 4.5 46 337 1.4 2.8 1014.1 0.0000 0.2000
20:34 15.8 4.5 47 328 1.4 4.7 1014.2 0.0000 0.2000
20:44 15.5 4.5 48 322 1.4 5 1014.4 0.0000 0.2000
20:54 15.2 4.6 49 324 1.4 3.3 1014.4 0.0000 0.2000
21:04 14.9 4.6 50 349 1.1 2.5 1014.5 0.0000 0.2000
21:14 14.7 4.7 51 347 1.1 4.2 1014.6 0.0000 0.2000
21:25 14.3 4.6 52 349 0.8 2.2 1014.7 0.0000 0.2000
21:35 14 4.8 54 347 0.8 1.7 1014.8 0.0000 0.2000
21:44 13.6 4.7 55 352 0.8 1.7 1015 0.0000 0.2000
21:54 13.2 4.6 56 338 1.1 2.8 1015.2 0.0000 0.2000
22:05 12.9 4.6 57 331 1.1 2.8 1015.3 0.0000 0.2000
22:15 12.7 4.4 57 355 0.8 1.4 1015.4 0.0000 0.2000
22:25 12.4 4.4 58 348 0.3 2.2 1015.5 0.0000 0.2000
22:35 12.1 4.3 59 349 0.8 2.2 1015.6 0.0000 0.2000
22:45 11.9 4.4 60 351 0.8 1.7 1015.6 0.0000 0.2000
22:55 11.6 4.6 62 13 0.8 1.7 1015.7 0.0000 0.2000
23:05 11.4 4.6 63 341 0.8 2.2 1015.8 0.0000 0.2000
23:16 11.3 4.7 64 334 0.8 2.2 1015.9 0.0000 0.2000
23:25 11.1 4.6 64 332 1.1 2.8 1016 0.0000 0.2000
23:35 11 4.7 65 319 0.8 2.2 1016.1 0.0000 0.2000
23:46 10.9 4.6 65 318 1.1 2.8 1016.1 0.0000 0.2000
23:56 10.8 4.5 65 338 0.8 1.4 1016.2 0.0000

TAGESSTATISTIK

2024-06-11
TEMPERATUR
MITTEL
13.4
MAXIMUM
19.5
17:00
MINIMUM
9.7
07:03
LUFTDRUCK
MITTEL
1010.5
MAXIMUM
1016.2
23:56
MINIMUM
1005.1
02:04
TAUPUNKT
MITTEL
7.0
MAXIMUM
10.4
00:04
MINIMUM
4.1
19:03
FEUCHTIGKEIT
MITTEL
68
MAXIMUM
90
00:04
MINIMUM
39
18:43
WINDSTÄRKE
MITTEL
1.6
MAXIMUM
3.3
13:40
WINDBÖE
MITTEL
4.6
MAXIMUM
10.0
12:15
WINDRICHTUNG
VORHERRSCHENDE
NW
82.6%
N
13.9
NO
0.7
O
0.0
SO
0.7
S
0.7
SW
0.7
W
0.7
NW
82.6
NIEDERSCHLAG
REGEN STUNDE
0.2
REGEN TAG
0.2
TEMPERATUR (°C)
MINIMUM
9.7
MAXIMUM
19.5
MITTEL
13.4
LUFTDRUCK (hpa)
MINIMUM
1005.1
MAXIMUM
1016.2
MITTEL
1010.5
MESSGERÄT